Time,TemperatureF,DewpointF,PressureIn,WindDirection,WindDirectionDegrees,WindSpeedMPH,WindSpeedGustMPH,Humidity,HourlyPrecipIn,Conditions,Clouds,dailyrainin,SoftwareType,DateUTC
2013-04-29 00:00:00,46.2,45.4,27.34,NNW,335,2.1,5.8,97,0.00,--,--,0.00,awk and wget,2013-04-29 04:00:00,
2013-04-29 00:05:00,46.1,45.3,27.34,NNW,333,1.0,5.8,97,0.00,--,--,0.00,awk and wget,2013-04-29 04:05:00,
2013-04-29 00:10:00,46.1,45.4,27.34,NNW,331,3.7,5.7,97,0.00,--,--,0.00,awk and wget,2013-04-29 04:10:00,
2013-04-29 00:15:00,46.1,45.4,27.34,NNW,331,3.4,6.0,97,0.00,--,--,0.00,awk and wget,2013-04-29 04:15:00,
2013-04-29 00:20:00,46.2,45.5,27.34,NNW,331,6.3,6.6,97,0.00,--,--,0.00,awk and wget,2013-04-29 04:20:00,
2013-04-29 00:25:00,46.2,45.6,27.34,NNW,331,6.1,7.4,97,0.00,--,--,0.00,awk and wget,2013-04-29 04:25:00,
2013-04-29 00:30:00,46.3,45.7,27.34,NNW,332,6.0,8.9,97,0.00,--,--,0.00,awk and wget,2013-04-29 04:30:00,
2013-04-29 00:35:00,46.6,46.0,27.34,NNW,335,4.1,9.4,97,0.00,--,--,0.00,awk and wget,2013-04-29 04:35:00,
2013-04-29 00:40:00,46.7,46.1,27.33,NNW,334,4.9,10.8,97,0.00,--,--,0.00,awk and wget,2013-04-29 04:40:00,
2013-04-29 00:45:00,46.9,46.2,27.33,NNW,336,4.0,12.8,97,0.00,--,--,0.00,awk and wget,2013-04-29 04:45:00,
2013-04-29 00:50:00,47.0,46.1,27.33,NNW,334,3.2,12.8,96,0.00,--,--,0.00,awk and wget,2013-04-29 04:50:00,
2013-04-29 00:55:00,47.0,46.1,27.33,NNW,335,3.4,25.9,96,0.00,--,--,0.00,awk and wget,2013-04-29 04:55:00,
2013-04-29 01:00:00,47.1,46.0,27.33,NNW,334,5.1,25.9,96,0.00,--,--,0.00,awk and wget,2013-04-29 05:00:00,
2013-04-29 01:05:00,47.0,45.9,27.33,SE,127,6.1,25.9,95,0.00,--,--,0.00,awk and wget,2013-04-29 05:05:00,
2013-04-29 01:10:00,47.0,45.8,27.33,NNW,335,4.2,10.2,95,0.00,--,--,0.00,awk and wget,2013-04-29 05:10:00,
2013-04-29 01:15:00,47.0,45.7,27.33,NNW,333,3.8,14.3,95,0.00,--,--,0.00,awk and wget,2013-04-29 05:15:00,
2013-04-29 01:20:00,47.1,45.8,27.33,NNW,335,5.1,14.3,95,0.00,--,--,0.00,awk and wget,2013-04-29 05:20:00,
2013-04-29 01:25:00,47.1,45.7,27.33,NNW,332,2.7,14.3,94,0.00,--,--,0.00,awk and wget,2013-04-29 05:25:00,
2013-04-29 01:30:00,47.1,45.6,27.33,NNW,333,5.7,10.7,94,0.00,--,--,0.00,awk and wget,2013-04-29 05:30:00,
2013-04-29 01:35:00,47.1,45.5,27.33,North,356,3.7,9.6,94,0.00,--,--,0.00,awk and wget,2013-04-29 05:35:00,
2013-04-29 01:40:00,46.9,45.3,27.33,NNW,331,8.3,10.3,94,0.00,--,--,0.00,awk and wget,2013-04-29 05:40:00,
2013-04-29 01:45:00,46.7,45.4,27.33,NNW,336,9.2,10.3,95,0.00,--,--,0.00,awk and wget,2013-04-29 05:45:00,
2013-04-29 01:50:00,46.8,45.6,27.33,NNW,332,2.8,10.3,95,0.00,--,--,0.00,awk and wget,2013-04-29 05:50:00,
2013-04-29 01:55:00,46.9,45.7,27.33,NNW,333,4.1,8.9,95,0.00,--,--,0.00,awk and wget,2013-04-29 05:55:00,
2013-04-29 02:00:00,46.9,45.7,27.32,NNW,335,4.1,9.5,95,0.00,--,--,0.00,awk and wget,2013-04-29 06:00:00,
2013-04-29 02:05:00,46.9,45.8,27.32,NNW,333,4.8,9.5,95,0.00,--,--,0.00,awk and wget,2013-04-29 06:05:00,
2013-04-29 02:10:00,47.0,45.8,27.32,NNW,335,5.4,9.5,95,0.00,--,--,0.00,awk and wget,2013-04-29 06:10:00,
2013-04-29 02:15:00,46.8,45.6,27.32,SSE,147,2.2,8.8,95,0.00,--,--,0.00,awk and wget,2013-04-29 06:15:00,
2013-04-29 02:20:00,46.7,45.5,27.32,NNW,335,1.4,9.5,95,0.00,--,--,0.00,awk and wget,2013-04-29 06:20:00,
2013-04-29 02:30:00,46.6,45.5,27.31,NNW,331,3.2,9.5,95,0.00,--,--,0.00,awk and wget,2013-04-29 06:30:00,
2013-04-29 02:35:00,46.5,45.5,27.31,NNW,331,4.0,8.1,96,0.00,--,--,0.00,awk and wget,2013-04-29 06:35:00,
2013-04-29 02:40:00,46.5,45.5,27.31,NNW,333,0.9,7.6,96,0.00,--,--,0.00,awk and wget,2013-04-29 06:40:00,
2013-04-29 02:45:00,46.5,45.5,27.31,NNW,331,2.5,7.2,96,0.00,--,--,0.00,awk and wget,2013-04-29 06:45:00,
2013-04-29 02:50:00,46.5,45.6,27.31,NNW,331,2.4,7.2,96,0.00,--,--,0.00,awk and wget,2013-04-29 06:50:00,
2013-04-29 02:55:00,46.6,45.6,27.31,NNW,333,3.5,7.2,96,0.00,--,--,0.00,awk and wget,2013-04-29 06:55:00,
2013-04-29 03:00:00,46.7,45.7,27.31,NNW,333,2.0,6.0,96,0.00,--,--,0.00,awk and wget,2013-04-29 07:00:00,
2013-04-29 03:05:00,46.8,45.9,27.31,NNW,332,2.6,6.2,96,0.00,--,--,0.00,awk and wget,2013-04-29 07:05:00,
2013-04-29 03:10:00,46.9,45.9,27.31,NNW,332,3.2,6.4,96,0.00,--,--,0.00,awk and wget,2013-04-29 07:10:00,
2013-04-29 03:20:00,46.8,45.8,27.31,NNW,334,4.9,7.4,96,0.00,--,--,0.00,awk and wget,2013-04-29 07:20:00,
2013-04-29 03:25:00,46.9,45.9,27.30,NNW,333,2.9,7.6,96,0.00,--,--,0.00,awk and wget,2013-04-29 07:25:00,
2013-04-29 03:30:00,46.9,45.8,27.30,NNW,332,1.9,7.8,96,0.00,--,--,0.00,awk and wget,2013-04-29 07:30:00,
2013-04-29 03:35:00,46.9,45.8,27.30,NNW,335,2.4,7.8,96,0.00,--,--,0.00,awk and wget,2013-04-29 07:35:00,
2013-04-29 03:40:00,46.9,45.8,27.30,NNW,335,2.9,7.8,95,0.00,--,--,0.00,awk and wget,2013-04-29 07:40:00,
2013-04-29 03:45:00,46.9,45.8,27.30,NNW,333,1.8,8.2,95,0.00,--,--,0.00,awk and wget,2013-04-29 07:45:00,
2013-04-29 03:50:00,46.9,45.8,27.30,NNW,334,3.5,8.2,95,0.00,--,--,0.00,awk and wget,2013-04-29 07:50:00,
2013-04-29 04:00:00,47.0,45.8,27.30,NNW,336,3.5,8.8,95,0.00,--,--,0.00,awk and wget,2013-04-29 08:00:00,
2013-04-29 04:10:00,46.9,45.8,27.30,NNW,333,2.4,8.0,95,0.00,--,--,0.00,awk and wget,2013-04-29 08:10:00,
2013-04-29 04:15:00,46.9,45.7,27.30,NNW,331,3.0,8.0,95,0.00,--,--,0.00,awk and wget,2013-04-29 08:15:00,
2013-04-29 04:20:00,46.9,45.8,27.30,NNW,332,3.4,8.0,95,0.00,--,--,0.00,awk and wget,2013-04-29 08:20:00,
2013-04-29 04:25:00,46.8,45.8,27.29,NNW,333,1.8,8.0,96,0.00,--,--,0.00,awk and wget,2013-04-29 08:25:00,
2013-04-29 04:30:00,46.9,45.9,27.29,NNW,335,2.2,7.0,96,0.00,--,--,0.00,awk and wget,2013-04-29 08:30:00,
2013-04-29 04:35:00,47.0,45.9,27.29,NNW,333,2.9,7.9,96,0.00,--,--,0.00,awk and wget,2013-04-29 08:35:00,
2013-04-29 04:40:00,46.9,45.8,27.29,NNW,335,2.6,8.4,95,0.00,--,--,0.00,awk and wget,2013-04-29 08:40:00,
2013-04-29 04:45:00,46.9,45.8,27.29,NNW,335,3.2,8.4,95,0.00,--,--,0.00,awk and wget,2013-04-29 08:45:00,
2013-04-29 04:50:00,46.9,45.8,27.29,NNW,334,2.2,8.4,95,0.00,--,--,0.00,awk and wget,2013-04-29 08:50:00,
2013-04-29 04:55:00,46.9,45.8,27.29,NNW,335,2.8,8.1,95,0.00,--,--,0.00,awk and wget,2013-04-29 08:55:00,
2013-04-29 05:00:00,46.9,45.8,27.29,NNW,334,1.1,7.3,95,0.00,--,--,0.00,awk and wget,2013-04-29 09:00:00,
2013-04-29 05:05:00,46.9,45.8,27.29,SSE,154,1.8,7.3,95,0.00,--,--,0.00,awk and wget,2013-04-29 09:05:00,
2013-04-29 05:10:00,46.7,45.6,27.28,NNW,335,1.6,6.2,95,0.00,--,--,0.00,awk and wget,2013-04-29 09:10:00,
2013-04-29 05:15:00,46.7,45.6,27.28,NNW,347,1.0,4.1,96,0.00,--,--,0.00,awk and wget,2013-04-29 09:15:00,
2013-04-29 05:25:00,46.6,45.6,27.29,NNW,330,2.7,4.1,96,0.00,--,--,0.00,awk and wget,2013-04-29 09:25:00,
2013-04-29 05:30:00,46.5,45.6,27.28,NNW,333,1.9,4.2,96,0.00,--,--,0.00,awk and wget,2013-04-29 09:30:00,
2013-04-29 05:35:00,46.5,45.6,27.28,NNW,340,1.7,4.3,96,0.00,--,--,0.00,awk and wget,2013-04-29 09:35:00,
2013-04-29 05:40:00,46.6,45.7,27.28,NNW,334,1.6,4.3,96,0.00,--,--,0.00,awk and wget,2013-04-29 09:40:00,
2013-04-29 05:45:00,46.5,45.7,27.28,NNW,331,1.4,4.3,96,0.00,--,--,0.00,awk and wget,2013-04-29 09:45:00,
2013-04-29 05:50:00,46.6,45.8,27.28,NNW,331,2.7,4.2,96,0.00,--,--,0.00,awk and wget,2013-04-29 09:50:00,
2013-04-29 05:55:00,46.6,45.8,27.29,NNW,331,4.0,5.2,96,0.00,--,--,0.00,awk and wget,2013-04-29 09:55:00,
2013-04-29 06:00:00,46.6,45.8,27.29,NNW,331,3.7,5.2,97,0.00,--,--,0.00,awk and wget,2013-04-29 10:00:00,
2013-04-29 06:05:00,46.6,45.8,27.29,NNW,331,3.9,5.2,97,0.00,--,--,0.00,awk and wget,2013-04-29 10:05:00,
2013-04-29 06:10:00,46.6,45.9,27.29,NNW,336,1.0,5.2,97,0.00,--,--,0.00,awk and wget,2013-04-29 10:10:00,
2013-04-29 06:16:00,46.8,46.1,27.29,SSE,152,4.7,7.0,97,0.00,--,--,0.00,awk and wget,2013-04-29 10:16:00,
2013-04-29 06:25:00,46.9,46.2,27.29,NNW,333,1.3,7.0,97,0.00,--,--,0.00,awk and wget,2013-04-29 10:25:00,
2013-04-29 06:30:00,46.9,46.1,27.29,NNW,334,0.6,7.0,97,0.00,--,--,0.00,awk and wget,2013-04-29 10:30:00,
2013-04-29 06:35:00,46.9,46.1,27.29,NNW,333,0.8,6.1,97,0.00,--,--,0.00,awk and wget,2013-04-29 10:35:00,
2013-04-29 06:40:00,46.8,46.0,27.30,NNW,333,0.7,5.5,97,0.00,--,--,0.00,awk and wget,2013-04-29 10:40:00,
2013-04-29 06:45:00,46.7,45.9,27.30,NNE,24,2.1,4.7,97,0.00,--,--,0.00,awk and wget,2013-04-29 10:45:00,
2013-04-29 06:50:00,46.7,46.0,27.30,NE,48,3.1,5.5,97,0.00,--,--,0.00,awk and wget,2013-04-29 10:50:00,
2013-04-29 06:55:00,46.7,46.0,27.30,ENE,67,2.4,6.0,97,0.00,--,--,0.00,awk and wget,2013-04-29 10:55:00,
2013-04-29 07:00:00,46.8,46.0,27.31,East,81,1.9,6.0,97,0.00,--,--,0.00,awk and wget,2013-04-29 11:00:00,
2013-04-29 07:05:00,46.8,46.1,27.31,ENE,76,1.5,6.0,97,0.00,--,--,0.00,awk and wget,2013-04-29 11:05:00,
2013-04-29 07:10:00,46.9,46.1,27.31,East,92,0.6,5.2,97,0.00,--,--,0.00,awk and wget,2013-04-29 11:10:00,
2013-04-29 07:15:00,46.9,46.2,27.31,NNW,333,0.7,5.0,97,0.00,--,--,0.00,awk and wget,2013-04-29 11:15:00,
2013-04-29 07:25:00,47.0,46.3,27.31,NNW,336,0.8,4.6,97,0.00,--,--,0.00,awk and wget,2013-04-29 11:25:00,
2013-04-29 07:30:00,47.0,46.3,27.31,NNW,333,4.4,5.2,97,0.00,--,--,0.00,awk and wget,2013-04-29 11:30:00,
2013-04-29 07:35:00,47.0,46.3,27.31,NNW,331,5.2,5.8,97,0.00,--,--,0.00,awk and wget,2013-04-29 11:35:00,
2013-04-29 07:40:00,47.1,46.5,27.31,NNW,331,5.2,6.3,97,0.00,--,--,0.00,awk and wget,2013-04-29 11:40:00,
2013-04-29 07:45:00,47.1,46.5,27.31,NNW,336,5.0,6.3,97,0.00,--,--,0.00,awk and wget,2013-04-29 11:45:00,
2013-04-29 07:50:00,47.1,46.5,27.31,NNW,331,3.0,6.3,97,0.00,--,--,0.00,awk and wget,2013-04-29 11:50:00,
2013-04-29 07:55:00,47.2,46.6,27.31,NNW,336,1.8,6.1,97,0.00,--,--,0.00,awk and wget,2013-04-29 11:55:00,
2013-04-29 08:00:00,47.2,46.6,27.31,NNW,332,1.6,5.5,97,0.00,--,--,0.00,awk and wget,2013-04-29 12:00:00,
2013-04-29 08:05:00,47.3,46.7,27.31,NNW,333,1.2,6.6,97,0.00,--,--,0.00,awk and wget,2013-04-29 12:05:00,
2013-04-29 08:10:00,47.4,46.7,27.31,NNW,332,2.3,6.6,97,0.00,--,--,0.00,awk and wget,2013-04-29 12:10:00,
2013-04-29 08:20:00,47.4,46.7,27.31,NNW,336,1.9,6.6,97,0.00,--,--,0.00,awk and wget,2013-04-29 12:20:00,
2013-04-29 08:25:00,47.3,46.7,27.31,NNW,333,2.5,7.7,97,0.00,--,--,0.00,awk and wget,2013-04-29 12:25:00,
2013-04-29 08:30:00,47.4,46.7,27.31,NNW,333,1.9,7.7,97,0.00,--,--,0.00,awk and wget,2013-04-29 12:30:00,
2013-04-29 08:35:00,47.4,46.7,27.31,NNW,334,2.8,7.7,97,0.00,--,--,0.00,awk and wget,2013-04-29 12:35:00,
2013-04-29 08:40:00,47.6,46.9,27.32,NNW,334,2.6,7.9,97,0.00,--,--,0.00,awk and wget,2013-04-29 12:40:00,
2013-04-29 08:45:00,47.7,47.1,27.32,NNW,334,1.0,7.9,97,0.00,--,--,0.00,awk and wget,2013-04-29 12:45:00,
2013-04-29 08:55:00,47.6,47.0,27.31,NNW,331,4.1,6.8,97,0.00,--,--,0.00,awk and wget,2013-04-29 12:55:00,
2013-04-29 09:00:00,47.5,46.9,27.31,NNW,331,4.5,6.8,97,0.00,--,--,0.00,awk and wget,2013-04-29 13:00:00,
2013-04-29 09:05:00,47.6,47.0,27.31,NNW,334,1.9,7.0,97,0.00,--,--,0.00,awk and wget,2013-04-29 13:05:00,
2013-04-29 09:10:00,48.0,47.4,27.31,NNW,332,5.3,7.1,97,0.00,--,--,0.00,awk and wget,2013-04-29 13:10:00,
2013-04-29 09:20:00,48.1,47.5,27.31,NNW,336,4.2,7.1,97,0.00,--,--,0.00,awk and wget,2013-04-29 13:20:00,
2013-04-29 09:25:00,48.3,47.7,27.31,NNW,330,2.4,6.8,97,0.00,--,--,0.00,awk and wget,2013-04-29 13:25:00,
2013-04-29 09:30:00,48.5,47.9,27.31,NNW,330,2.4,6.8,97,0.00,--,--,0.00,awk and wget,2013-04-29 13:30:00,
2013-04-29 09:35:00,48.4,47.8,27.31,NNW,331,2.8,8.0,97,0.00,--,--,0.00,awk and wget,2013-04-29 13:35:00,
2013-04-29 09:40:00,48.7,48.1,27.31,NNW,330,7.4,9.1,97,0.00,--,--,0.00,awk and wget,2013-04-29 13:40:00,
2013-04-29 09:50:00,49.0,48.3,27.31,NNW,331,2.2,9.1,97,0.00,--,--,0.00,awk and wget,2013-04-29 13:50:00,
2013-04-29 09:55:00,49.8,49.1,27.31,NNW,333,2.6,7.8,97,0.00,--,--,0.00,awk and wget,2013-04-29 13:55:00,
2013-04-29 10:00:00,50.4,49.5,27.31,NNW,334,2.7,8.1,96,0.00,--,--,0.00,awk and wget,2013-04-29 14:00:00,
2013-04-29 10:05:00,50.6,49.4,27.31,NNW,330,7.4,8.7,95,0.00,--,--,0.00,awk and wget,2013-04-29 14:05:00,
2013-04-29 10:10:00,50.6,49.0,27.31,NNW,332,6.4,9.0,93,0.00,--,--,0.00,awk and wget,2013-04-29 14:10:00,
2013-04-29 10:20:00,50.9,48.8,27.31,NNW,330,8.6,9.6,92,0.00,--,--,0.00,awk and wget,2013-04-29 14:20:00,
2013-04-29 10:25:00,51.2,49.1,27.31,NNW,330,7.8,10.5,92,0.00,--,--,0.00,awk and wget,2013-04-29 14:25:00,
2013-04-29 10:30:00,51.4,48.9,27.30,NNW,330,9.1,10.5,91,0.00,--,--,0.00,awk and wget,2013-04-29 14:30:00,
2013-04-29 10:35:00,51.7,49.2,27.31,NNW,330,7.3,10.9,90,0.00,--,--,0.00,awk and wget,2013-04-29 14:35:00,
2013-04-29 10:40:00,52.0,49.2,27.30,NNW,330,8.4,11.3,90,0.00,--,--,0.00,awk and wget,2013-04-29 14:40:00,
2013-04-29 10:50:00,51.5,48.5,27.31,NNW,329,5.9,11.5,89,0.00,--,--,0.00,awk and wget,2013-04-29 14:50:00,
2013-04-29 10:55:00,51.8,48.9,27.31,NNW,329,5.8,11.5,89,0.00,--,--,0.00,awk and wget,2013-04-29 14:55:00,
2013-04-29 11:00:00,52.0,48.8,27.31,NNW,332,4.1,9.9,88,0.00,--,--,0.00,awk and wget,2013-04-29 15:00:00,
2013-04-29 11:05:00,52.4,49.1,27.31,SE,137,4.3,9.8,88,0.00,--,--,0.00,awk and wget,2013-04-29 15:05:00,
2013-04-29 11:10:00,52.9,49.3,27.31,SE,137,8.0,10.8,87,0.00,--,--,0.00,awk and wget,2013-04-29 15:10:00,
2013-04-29 11:15:00,53.4,49.4,27.31,North,350,3.6,11.9,86,0.00,--,--,0.00,awk and wget,2013-04-29 15:15:00,
2013-04-29 11:25:00,53.5,49.3,27.31,NNW,329,9.5,11.9,85,0.00,--,--,0.00,awk and wget,2013-04-29 15:25:00,
2013-04-29 11:30:00,53.3,49.1,27.31,NNW,333,10.8,13.3,85,0.00,--,--,0.00,awk and wget,2013-04-29 15:30:00,
2013-04-29 11:35:00,53.4,48.8,27.31,NNW,328,10.5,13.3,84,0.00,--,--,0.00,awk and wget,2013-04-29 15:35:00,
2013-04-29 11:40:00,53.8,49.3,27.31,NNW,328,10.2,13.3,84,0.00,--,--,0.00,awk and wget,2013-04-29 15:40:00,
2013-04-29 11:45:00,53.7,48.8,27.31,NNW,328,11.2,12.8,83,0.00,--,--,0.00,awk and wget,2013-04-29 15:45:00,
2013-04-29 11:50:00,53.7,49.3,27.31,NNW,330,4.4,12.4,84,0.00,--,--,0.00,awk and wget,2013-04-29 15:50:00,
2013-04-29 11:55:00,53.8,48.9,27.31,NNW,330,10.3,12.4,83,0.00,--,--,0.00,awk and wget,2013-04-29 15:55:00,
2013-04-29 12:00:00,54.1,49.1,27.31,NNW,330,8.4,11.8,83,0.00,--,--,0.00,awk and wget,2013-04-29 16:00:00,
2013-04-29 12:10:00,54.4,49.4,27.31,NNW,331,9.1,12.8,83,0.00,--,--,0.00,awk and wget,2013-04-29 16:10:00,
2013-04-29 12:15:00,54.4,49.4,27.31,NNW,331,9.1,12.8,83,0.00,--,--,0.00,awk and wget,2013-04-29 16:15:00,
2013-04-29 12:25:00,56.2,50.5,27.30,NNW,333,5.7,12.4,81,0.00,--,--,0.00,awk and wget,2013-04-29 16:25:00,
2013-04-29 12:30:00,55.9,49.6,27.30,NNW,329,5.0,12.4,79,0.00,--,--,0.00,awk and wget,2013-04-29 16:30:00,
2013-04-29 12:35:00,55.9,49.2,27.30,NNW,331,1.7,12.4,78,0.00,--,--,0.00,awk and wget,2013-04-29 16:35:00,
2013-04-29 12:40:00,56.3,49.5,27.30,NNW,331,5.5,12.8,77,0.00,--,--,0.00,awk and wget,2013-04-29 16:40:00,
2013-04-29 12:45:00,56.7,49.6,27.30,NNW,327,9.4,12.8,77,0.00,--,--,0.00,awk and wget,2013-04-29 16:45:00,
2013-04-29 12:50:00,56.6,49.4,27.29,NNW,330,5.7,12.8,76,0.00,--,--,0.00,awk and wget,2013-04-29 16:50:00,
2013-04-29 12:55:00,56.5,50.0,27.30,NNW,327,6.9,12.4,78,0.00,--,--,0.00,awk and wget,2013-04-29 16:55:00,
2013-04-29 13:00:00,56.7,49.9,27.29,NNW,332,11.6,12.6,77,0.00,--,--,0.00,awk and wget,2013-04-29 17:00:00,
2013-04-29 13:05:00,57.8,50.4,27.30,NNW,329,6.8,13.0,76,0.00,--,--,0.00,awk and wget,2013-04-29 17:05:00,
2013-04-29 13:10:00,57.0,50.1,27.30,NNW,330,8.1,13.0,77,0.00,--,--,0.00,awk and wget,2013-04-29 17:10:00,
2013-04-29 13:15:00,57.0,50.0,27.29,NNW,327,10.3,13.0,77,0.00,--,--,0.00,awk and wget,2013-04-29 17:15:00,
2013-04-29 13:25:00,57.3,49.7,27.29,NNW,329,11.4,26.9,75,0.00,--,--,0.00,awk and wget,2013-04-29 17:25:00,
2013-04-29 13:30:00,58.1,50.1,27.29,NNW,327,12.1,26.9,74,0.00,--,--,0.00,awk and wget,2013-04-29 17:30:00,
2013-04-29 13:35:00,58.2,50.5,27.29,NNW,327,5.4,26.9,75,0.00,--,--,0.00,awk and wget,2013-04-29 17:35:00,
2013-04-29 13:40:00,57.8,50.6,27.29,NNW,327,5.3,12.8,76,0.00,--,--,0.00,awk and wget,2013-04-29 17:40:00,
2013-04-29 13:45:00,58.6,49.6,27.29,NNW,330,4.1,13.8,72,0.00,--,--,0.00,awk and wget,2013-04-29 17:45:00,
2013-04-29 13:50:00,59.2,50.5,27.29,NNW,327,8.7,13.8,72,0.00,--,--,0.00,awk and wget,2013-04-29 17:50:00,
2013-04-29 14:00:00,59.2,49.9,27.29,NNW,331,10.0,12.8,71,0.00,--,--,0.00,awk and wget,2013-04-29 18:00:00,
2013-04-29 14:10:00,59.0,49.2,27.28,NNW,327,7.1,12.6,70,0.00,--,--,0.00,awk and wget,2013-04-29 18:10:00,
2013-04-29 14:15:00,60.3,49.9,27.28,NNW,328,7.0,11.6,68,0.00,--,--,0.00,awk and wget,2013-04-29 18:15:00,
2013-04-29 14:25:00,60.7,50.6,27.28,NNW,328,7.1,10.9,69,0.00,--,--,0.00,awk and wget,2013-04-29 18:25:00,
2013-04-29 14:30:00,60.7,50.8,27.28,NW,326,1.8,10.9,69,0.00,--,--,0.00,awk and wget,2013-04-29 18:30:00,
2013-04-29 14:35:00,61.7,49.9,27.28,NNW,328,5.7,11.6,65,0.00,--,--,0.00,awk and wget,2013-04-29 18:35:00,
2013-04-29 14:45:00,62.4,50.5,27.27,NW,326,7.8,14.5,65,0.00,--,--,0.00,awk and wget,2013-04-29 18:45:00,
2013-04-29 14:50:00,63.0,50.5,27.27,NNW,328,2.2,14.5,63,0.00,--,--,0.00,awk and wget,2013-04-29 18:50:00,
2013-04-29 14:55:00,62.9,49.5,27.27,NW,325,8.6,10.8,61,0.00,--,--,0.00,awk and wget,2013-04-29 18:55:00,
2013-04-29 15:00:00,62.4,48.9,27.27,NNW,327,2.7,10.7,61,0.00,--,--,0.00,awk and wget,2013-04-29 19:00:00,
2013-04-29 15:10:00,62.9,49.9,27.26,ESE,119,4.3,12.8,62,0.00,--,--,0.00,awk and wget,2013-04-29 19:10:00,
2013-04-29 15:15:00,63.4,50.0,27.26,NW,325,6.9,12.8,61,0.00,--,--,0.00,awk and wget,2013-04-29 19:15:00,
2013-04-29 15:20:00,65.3,49.3,27.26,NNW,330,4.1,12.8,56,0.00,--,--,0.00,awk and wget,2013-04-29 19:20:00,
2013-04-29 15:30:00,65.1,49.6,27.26,SE,146,4.4,12.8,57,0.00,--,--,0.00,awk and wget,2013-04-29 19:30:00,
2013-04-29 15:35:00,64.3,49.7,27.26,SSE,147,5.2,12.8,59,0.00,--,--,0.00,awk and wget,2013-04-29 19:35:00,
2013-04-29 15:40:00,63.1,49.3,27.26,NNW,327,7.3,12.8,60,0.00,--,--,0.00,awk and wget,2013-04-29 19:40:00,
2013-04-29 15:50:00,63.5,49.4,27.26,NNW,329,7.4,10.5,60,0.00,--,--,0.00,awk and wget,2013-04-29 19:50:00,
2013-04-29 16:00:00,62.3,50.2,27.26,NNW,327,7.4,14.3,64,0.00,--,--,0.00,awk and wget,2013-04-29 20:00:00,
2013-04-29 16:10:00,60.4,52.5,27.25,NNW,332,2.5,14.3,74,0.00,--,--,0.00,awk and wget,2013-04-29 20:10:00,
2013-04-29 16:15:00,60.2,53.6,27.25,NNW,328,4.7,14.0,78,0.00,--,--,0.00,awk and wget,2013-04-29 20:15:00,
2013-04-29 16:20:00,60.9,55.8,27.25,NNW,332,4.5,8.6,83,0.00,--,--,0.00,awk and wget,2013-04-29 20:20:00,
2013-04-29 16:30:00,62.4,51.1,27.25,NNW,339,5.8,9.4,66,0.00,--,--,0.00,awk and wget,2013-04-29 20:30:00,
2013-04-29 16:40:00,61.6,51.5,27.25,NNE,21,6.2,9.7,69,0.00,--,--,0.00,awk and wget,2013-04-29 20:40:00,
2013-04-29 16:50:00,60.7,50.8,27.25,NNW,329,6.1,14.2,69,0.00,--,--,0.00,awk and wget,2013-04-29 20:50:00,
2013-04-29 17:00:00,58.9,52.5,27.25,NNW,330,1.0,13.1,79,0.00,--,--,0.00,awk and wget,2013-04-29 21:00:00,
2013-04-29 17:10:00,56.9,54.0,27.26,NNW,333,2.6,9.5,89,0.00,--,--,0.00,awk and wget,2013-04-29 21:10:00,
2013-04-29 17:20:00,57.3,55.8,27.26,ENE,64,3.5,9.5,94,0.00,--,--,0.00,awk and wget,2013-04-29 21:20:00,
2013-04-29 17:30:00,58.3,56.8,27.25,ENE,68,3.4,7.3,94,0.00,--,--,0.00,awk and wget,2013-04-29 21:30:00,
2013-04-29 17:40:00,58.6,56.6,27.26,East,87,5.6,8.2,93,0.00,--,--,0.00,awk and wget,2013-04-29 21:40:00,
2013-04-29 17:50:00,59.1,55.0,27.26,ESE,104,4.3,8.4,86,0.00,--,--,0.00,awk and wget,2013-04-29 21:50:00,
2013-04-29 18:00:00,59.2,56.2,27.26,ESE,117,1.5,7.6,89,0.00,--,--,0.00,awk and wget,2013-04-29 22:00:00,
2013-04-29 18:05:00,59.2,55.9,27.26,NNW,330,1.3,7.1,88,0.00,--,--,0.00,awk and wget,2013-04-29 22:05:00,
2013-04-29 18:10:00,59.1,55.8,27.26,ENE,65,1.5,5.6,88,0.00,--,--,0.00,awk and wget,2013-04-29 22:10:00,
2013-04-29 18:20:00,58.8,56.4,27.26,NNE,29,1.9,5.3,91,0.00,--,--,0.00,awk and wget,2013-04-29 22:20:00,
2013-04-29 18:25:00,58.6,56.5,27.26,NNE,31,1.9,6.1,92,0.00,--,--,0.00,awk and wget,2013-04-29 22:25:00,
2013-04-29 18:30:00,58.5,56.5,27.26,NE,43,2.8,6.3,93,0.00,--,--,0.00,awk and wget,2013-04-29 22:30:00,
2013-04-29 18:35:00,58.5,56.7,27.26,NE,45,2.4,6.3,93,0.00,--,--,0.00,awk and wget,2013-04-29 22:35:00,
2013-04-29 18:40:00,58.7,56.9,27.26,NE,42,2.5,6.3,93,0.00,--,--,0.00,awk and wget,2013-04-29 22:40:00,
2013-04-29 18:45:00,58.4,56.2,27.26,NNE,28,3.4,6.3,92,0.00,--,--,0.00,awk and wget,2013-04-29 22:45:00,
2013-04-29 18:50:00,58.4,56.5,27.26,NNE,26,4.0,6.1,93,0.00,--,--,0.00,awk and wget,2013-04-29 22:50:00,
2013-04-29 19:00:00,58.6,56.8,27.26,North,3,3.7,5.8,93,0.00,--,--,0.00,awk and wget,2013-04-29 23:00:00,
2013-04-29 19:05:00,58.5,55.9,27.27,North,353,5.6,7.8,91,0.00,--,--,0.00,awk and wget,2013-04-29 23:05:00,
2013-04-29 19:10:00,58.5,54.5,27.27,North,6,5.0,7.8,86,0.00,--,--,0.00,awk and wget,2013-04-29 23:10:00,
2013-04-29 19:20:00,57.6,55.4,27.27,NNE,27,3.9,9.7,92,0.00,--,--,0.00,awk and wget,2013-04-29 23:20:00,
2013-04-29 19:25:00,57.5,55.5,27.27,NE,45,4.7,9.7,92,0.00,--,--,0.00,awk and wget,2013-04-29 23:25:00,
2013-04-29 19:30:00,57.1,55.2,27.27,NE,47,6.6,9.7,93,0.00,--,--,0.00,awk and wget,2013-04-29 23:30:00,
2013-04-29 19:40:00,57.0,54.8,27.28,NE,40,4.5,8.9,92,0.00,--,--,0.00,awk and wget,2013-04-29 23:40:00,
2013-04-29 19:45:00,57.1,54.7,27.28,North,10,3.9,10.1,91,0.00,--,--,0.00,awk and wget,2013-04-29 23:45:00,
2013-04-29 19:50:00,57.1,54.3,27.28,NE,42,4.0,10.1,90,0.00,--,--,0.00,awk and wget,2013-04-29 23:50:00,
2013-04-29 20:00:00,57.0,53.5,27.28,NNW,335,2.2,9.9,87,0.00,--,--,0.00,awk and wget,2013-04-30 00:00:00,
2013-04-29 20:10:00,56.6,53.8,27.29,NNW,332,2.9,7.5,90,0.00,--,--,0.00,awk and wget,2013-04-30 00:10:00,
2013-04-29 20:15:00,56.7,54.1,27.29,NE,35,3.0,6.8,91,0.00,--,--,0.00,awk and wget,2013-04-30 00:15:00,
2013-04-29 20:25:00,56.5,54.2,27.29,NE,40,3.4,6.8,92,0.00,--,--,0.00,awk and wget,2013-04-30 00:25:00,
2013-04-29 20:30:00,55.9,54.0,27.29,East,97,6.1,9.4,93,0.00,--,--,0.00,awk and wget,2013-04-30 00:30:00,
2013-04-29 20:35:00,56.3,54.1,27.30,ESE,113,6.3,9.4,92,0.00,--,--,0.00,awk and wget,2013-04-30 00:35:00,
2013-04-29 20:40:00,55.8,53.5,27.30,ESE,115,5.7,9.5,91,0.00,--,--,0.00,awk and wget,2013-04-30 00:40:00,
2013-04-29 20:50:00,55.4,53.4,27.30,ESE,115,5.1,10.9,92,0.00,--,--,0.00,awk and wget,2013-04-30 00:50:00,
2013-04-29 21:00:00,55.0,53.1,27.31,East,99,4.9,10.9,93,0.00,--,--,0.00,awk and wget,2013-04-30 01:00:00,
2013-04-29 21:05:00,54.7,53.2,27.31,ENE,76,4.2,9.6,94,0.00,--,--,0.00,awk and wget,2013-04-30 01:05:00,
2013-04-29 21:10:00,54.7,53.3,27.31,East,101,3.9,8.8,95,0.00,--,--,0.00,awk and wget,2013-04-30 01:10:00,
2013-04-29 21:15:00,54.5,53.3,27.31,East,96,3.6,6.2,95,0.00,--,--,0.00,awk and wget,2013-04-30 01:15:00,
2013-04-29 21:25:00,54.2,53.1,27.31,East,101,3.3,5.4,96,0.00,--,--,0.00,awk and wget,2013-04-30 01:25:00,
2013-04-29 21:30:00,54.3,53.2,27.31,NE,48,2.1,5.4,96,0.00,--,--,0.00,awk and wget,2013-04-30 01:30:00,
2013-04-29 21:35:00,54.1,53.2,27.32,NE,40,3.6,5.4,96,0.00,--,--,0.00,awk and wget,2013-04-30 01:35:00,
2013-04-29 21:40:00,54.0,53.1,27.32,NNW,333,4.8,5.2,96,0.00,--,--,0.00,awk and wget,2013-04-30 01:40:00,
2013-04-29 21:50:00,54.1,53.3,27.32,NNE,22,2.3,6.6,96,0.00,--,--,0.00,awk and wget,2013-04-30 01:50:00,
2013-04-29 22:00:00,54.1,53.4,27.32,NE,49,3.1,6.8,97,0.00,--,--,0.00,awk and wget,2013-04-30 02:00:00,
2013-04-29 22:10:00,54.1,53.3,27.32,NNW,331,3.4,6.4,97,0.00,--,--,0.00,awk and wget,2013-04-30 02:10:00,
2013-04-29 22:15:00,54.1,53.3,27.32,NNW,331,3.4,5.4,97,0.00,--,--,0.00,awk and wget,2013-04-30 02:15:00,
2013-04-29 22:21:00,53.9,53.1,27.32,NNE,21,1.1,5.1,97,0.00,--,--,0.00,awk and wget,2013-04-30 02:21:00,
2013-04-29 22:30:00,53.9,53.1,27.32,NE,39,1.0,5.0,97,0.00,--,--,0.00,awk and wget,2013-04-30 02:30:00,
2013-04-29 22:35:00,53.9,53.2,27.33,NE,39,0.9,5.0,97,0.00,--,--,0.00,awk and wget,2013-04-30 02:35:00,
2013-04-29 22:40:00,53.7,53.0,27.33,NE,53,0.7,5.2,97,0.00,--,--,0.00,awk and wget,2013-04-30 02:40:00,
2013-04-29 22:45:00,53.7,53.0,27.33,NE,53,1.5,5.2,97,0.00,--,--,0.00,awk and wget,2013-04-30 02:45:00,
2013-04-29 22:50:00,53.7,53.0,27.33,ENE,67,1.9,5.2,97,0.00,--,--,0.00,awk and wget,2013-04-30 02:50:00,
2013-04-29 23:00:00,53.5,52.9,27.33,NE,53,2.3,5.7,97,0.00,--,--,0.00,awk and wget,2013-04-30 03:00:00,
2013-04-29 23:10:00,53.4,52.8,27.32,ENE,57,2.8,5.7,97,0.00,--,--,0.00,awk and wget,2013-04-30 03:10:00,
2013-04-29 23:15:00,53.4,52.8,27.32,NE,46,2.9,5.4,97,0.00,--,--,0.00,awk and wget,2013-04-30 03:15:00,
2013-04-29 23:25:00,53.3,52.7,27.32,NE,52,3.0,5.2,98,0.00,--,--,0.00,awk and wget,2013-04-30 03:25:00,
2013-04-29 23:30:00,53.3,52.8,27.32,East,81,2.1,5.2,98,0.00,--,--,0.00,awk and wget,2013-04-30 03:30:00,
2013-04-29 23:35:00,53.3,52.8,27.32,East,84,1.3,5.2,98,0.00,--,--,0.00,awk and wget,2013-04-30 03:35:00,
2013-04-29 23:40:00,53.2,52.7,27.32,ENE,68,1.2,4.5,98,0.00,--,--,0.00,awk and wget,2013-04-30 03:40:00,
2013-04-29 23:45:00,53.2,52.8,27.32,ENE,67,1.3,4.5,98,0.00,--,--,0.00,awk and wget,2013-04-30 03:45:00,
2013-04-29 23:50:00,53.2,52.7,27.32,ENE,65,1.7,4.5,98,0.00,--,--,0.00,awk and wget,2013-04-30 03:50:00,
2013-04-29 23:55:00,53.1,52.7,27.32,ENE,65,0.9,4.5,98,0.00,--,--,0.00,awk and wget,2013-04-30 03:55:00,